Time;durP1;ratioP1;P1;durP2;ratioP2;P2;SDS_P1;SDS_P2;PMS_P1;PMS_P2;Temp;Humidity;BMP_temperature;BMP_pressure;BME280_temperature;BME280_humidity;BME280_pressure;Samples;Min_cycle;Max_cycle;Signal;HPM_P1;HPM_P2
2022/02/28 00:00:38;;;;;;;7.87;5.90;;;;;;;;;;4973486;28;20106;-58
2022/02/28 00:03:04;;;;;;;10.27;5.53;;;;;;;;;;4987203;28;20072;-56
2022/02/28 00:05:30;;;;;;;11.93;6.00;;;;;;;;;;4989735;28;20031;-55
2022/02/28 00:07:56;;;;;;;10.10;5.67;;;;;;;;;;4986140;28;20184;-58
2022/02/28 00:10:23;;;;;;;8.43;5.80;;;;;;;;;;4988678;28;20057;-58
2022/02/28 00:12:49;;;;;;;8.23;5.13;;;;;;;;;;4982466;28;20073;-57
2022/02/28 00:15:16;;;;;;;11.47;5.90;;;;;;;;;;4973468;28;20035;-58
2022/02/28 00:17:42;;;;;;;6.53;5.57;;;;;;;;;;4983181;28;20050;-57
2022/02/28 00:20:10;;;;;;;8.83;6.53;;;;;;;;;;4988823;28;20083;-57
2022/02/28 00:22:36;;;;;;;9.37;6.13;;;;;;;;;;4981764;28;20057;-56
2022/02/28 00:25:02;;;;;;;10.07;5.83;;;;;;;;;;4991313;28;20046;-57
2022/02/28 00:27:28;;;;;;;12.13;5.87;;;;;;;;;;4991059;28;20026;-56
2022/02/28 00:29:54;;;;;;;7.17;4.87;;;;;;;;;;4982620;28;20026;-57
2022/02/28 00:32:21;;;;;;;7.53;5.00;;;;;;;;;;4989037;28;20121;-57
2022/02/28 00:34:48;;;;;;;10.73;5.57;;;;;;;;;;4984492;28;20044;-57
2022/02/28 00:37:14;;;;;;;10.13;6.40;;;;;;;;;;4987424;28;20027;-57
2022/02/28 00:39:40;;;;;;;7.83;5.50;;;;;;;;;;4991270;28;20560;-57
2022/02/28 00:42:06;;;;;;;14.00;7.10;;;;;;;;;;4990225;28;20023;-58
2022/02/28 00:44:32;;;;;;;10.10;6.73;;;;;;;;;;4977735;28;20377;-57
2022/02/28 00:46:58;;;;;;;12.93;7.20;;;;;;;;;;4975797;28;20035;-58
2022/02/28 00:49:24;;;;;;;13.63;8.13;;;;;;;;;;4992308;28;20058;-58
2022/02/28 00:51:50;;;;;;;15.57;8.30;;;;;;;;;;4991028;28;20034;-56
2022/02/28 00:54:16;;;;;;;14.50;9.10;;;;;;;;;;4985371;28;20441;-56
2022/02/28 00:56:43;;;;;;;16.30;9.40;;;;;;;;;;4990134;28;20114;-58
2022/02/28 00:59:09;;;;;;;13.97;8.43;;;;;;;;;;4983122;28;20110;-56
2022/02/28 01:01:36;;;;;;;17.67;9.53;;;;;;;;;;4979490;28;20031;-57
2022/02/28 01:04:03;;;;;;;14.53;9.40;;;;;;;;;;4987207;28;20422;-55
2022/02/28 01:06:29;;;;;;;16.33;9.80;;;;;;;;;;4978530;28;20591;-57
2022/02/28 01:08:55;;;;;;;15.80;9.40;;;;;;;;;;4982312;28;20034;-56
2022/02/28 01:11:21;;;;;;;13.90;9.83;;;;;;;;;;5002471;28;20050;-56
2022/02/28 01:13:47;;;;;;;18.17;9.90;;;;;;;;;;4985202;28;20034;-56
2022/02/28 01:16:13;;;;;;;16.33;9.80;;;;;;;;;;4984393;28;20038;-56
2022/02/28 01:18:39;;;;;;;16.97;9.83;;;;;;;;;;4980875;28;20605;-55
2022/02/28 01:21:05;;;;;;;14.63;10.03;;;;;;;;;;4989048;28;20051;-55
2022/02/28 01:23:31;;;;;;;14.13;9.50;;;;;;;;;;4989988;28;20037;-57
2022/02/28 01:25:58;;;;;;;13.70;10.07;;;;;;;;;;4991887;28;20075;-56
2022/02/28 01:28:24;;;;;;;16.40;10.00;;;;;;;;;;4989282;28;20034;-57
2022/02/28 01:30:50;;;;;;;15.93;10.03;;;;;;;;;;4981906;28;20022;-56
2022/02/28 01:33:16;;;;;;;16.17;10.40;;;;;;;;;;4990621;28;20037;-56
2022/02/28 01:35:42;;;;;;;18.33;11.40;;;;;;;;;;4974052;28;20381;-57
2022/02/28 01:38:08;;;;;;;18.17;10.90;;;;;;;;;;4980528;28;20027;-57
2022/02/28 01:40:34;;;;;;;15.27;10.47;;;;;;;;;;4982697;28;20540;-53
2022/02/28 01:43:01;;;;;;;17.00;10.67;;;;;;;;;;4991320;28;20030;-57
2022/02/28 01:45:27;;;;;;;15.27;10.80;;;;;;;;;;4974999;28;20439;-58
2022/02/28 01:47:53;;;;;;;15.27;10.63;;;;;;;;;;4981491;28;20073;-57
2022/02/28 01:50:20;;;;;;;15.30;10.83;;;;;;;;;;4971170;28;20034;-58
2022/02/28 01:52:51;;;;;;;13.97;10.20;;;;;;;;;;4976608;28;20026;-56
2022/02/28 01:55:18;;;;;;;20.83;11.33;;;;;;;;;;4987769;28;20039;-58
2022/02/28 01:57:44;;;;;;;15.27;10.60;;;;;;;;;;4970813;28;20027;-54
2022/02/28 02:00:13;;;;;;;15.93;10.00;;;;;;;;;;4972027;28;20041;-56
2022/02/28 02:02:40;;;;;;;14.50;10.60;;;;;;;;;;4985454;28;20027;-58
2022/02/28 02:05:06;;;;;;;17.70;11.60;;;;;;;;;;4986129;28;20538;-56
2022/02/28 02:07:32;;;;;;;19.83;11.97;;;;;;;;;;4973825;28;20050;-57
2022/02/28 02:09:59;;;;;;;17.03;11.73;;;;;;;;;;4971158;28;20480;-57
2022/02/28 02:12:28;;;;;;;16.17;11.37;;;;;;;;;;4985272;28;20053;-58
2022/02/28 02:14:55;;;;;;;13.73;10.63;;;;;;;;;;4988643;28;20126;-56
2022/02/28 02:17:21;;;;;;;20.00;11.00;;;;;;;;;;4985171;28;20039;-54
2022/02/28 02:19:48;;;;;;;16.47;11.47;;;;;;;;;;4975210;28;20070;-54
2022/02/28 02:22:14;;;;;;;20.40;12.07;;;;;;;;;;4972896;28;20054;-56
2022/02/28 02:24:41;;;;;;;16.43;10.17;;;;;;;;;;4977069;28;20496;-56
2022/02/28 02:27:07;;;;;;;17.03;11.07;;;;;;;;;;4985587;28;20070;-56
2022/02/28 02:29:39;;;;;;;15.97;10.43;;;;;;;;;;4988983;28;20034;-56
2022/02/28 02:32:09;;;;;;;18.97;10.57;;;;;;;;;;4985525;28;20042;-56
2022/02/28 02:34:35;;;;;;;17.90;10.90;;;;;;;;;;4990334;28;20069;-56
2022/02/28 02:37:01;;;;;;;13.20;10.63;;;;;;;;;;4988601;28;20050;-57
2022/02/28 02:39:27;;;;;;;14.93;11.30;;;;;;;;;;4991081;28;20030;-56
2022/02/28 02:41:54;;;;;;;15.87;9.80;;;;;;;;;;4988928;28;20392;-56
2022/02/28 02:44:20;;;;;;;17.73;11.50;;;;;;;;;;4979829;28;20031;-53
2022/02/28 02:46:51;;;;;;;14.47;10.00;;;;;;;;;;4982047;28;20426;-57
2022/02/28 02:49:17;;;;;;;14.63;10.47;;;;;;;;;;4989309;28;20030;-56
2022/02/28 02:51:44;;;;;;;13.83;9.50;;;;;;;;;;4989499;28;20037;-55
2022/02/28 02:54:10;;;;;;;14.60;8.80;;;;;;;;;;4991037;28;20030;-55
2022/02/28 02:56:37;;;;;;;12.67;8.33;;;;;;;;;;4980196;28;20122;-56
2022/02/28 02:59:04;;;;;;;14.00;8.43;;;;;;;;;;4976296;28;20026;-56
2022/02/28 03:01:30;;;;;;;12.60;7.90;;;;;;;;;;4989020;28;20038;-57
2022/02/28 03:03:56;;;;;;;12.80;8.37;;;;;;;;;;4993530;28;20106;-58
2022/02/28 03:06:22;;;;;;;12.77;8.03;;;;;;;;;;4986062;28;20026;-54
2022/02/28 03:08:48;;;;;;;12.47;7.73;;;;;;;;;;4990947;28;20038;-56
2022/02/28 03:11:14;;;;;;;10.97;7.37;;;;;;;;;;4988011;28;20072;-57
2022/02/28 03:13:40;;;;;;;10.10;7.53;;;;;;;;;;4977889;28;20026;-54
2022/02/28 03:16:06;;;;;;;11.17;7.53;;;;;;;;;;4979306;28;20125;-57
2022/02/28 03:18:32;;;;;;;9.37;7.80;;;;;;;;;;4992437;28;20054;-57
2022/02/28 03:20:58;;;;;;;11.63;7.57;;;;;;;;;;4992963;28;20057;-56
2022/02/28 03:23:25;;;;;;;14.17;8.80;;;;;;;;;;5023139;28;20025;-56
2022/02/28 03:25:53;;;;;;;14.37;9.33;;;;;;;;;;5065474;28;20117;-55
2022/02/28 03:28:19;;;;;;;11.83;8.43;;;;;;;;;;4986534;28;20038;-56
2022/02/28 03:30:45;;;;;;;12.43;7.70;;;;;;;;;;4982910;28;20430;-56
2022/02/28 03:33:11;;;;;;;13.03;7.67;;;;;;;;;;4993083;28;20033;-57
2022/02/28 03:35:37;;;;;;;11.80;8.13;;;;;;;;;;4989418;28;20050;-57
2022/02/28 03:38:04;;;;;;;12.20;8.30;;;;;;;;;;4983685;28;20027;-57
2022/02/28 03:40:30;;;;;;;10.97;8.03;;;;;;;;;;4980061;28;20046;-57
2022/02/28 03:42:57;;;;;;;13.73;8.43;;;;;;;;;;4992435;28;20031;-56
2022/02/28 03:45:24;;;;;;;11.63;7.87;;;;;;;;;;4987944;28;20023;-57
2022/02/28 03:47:50;;;;;;;11.10;8.20;;;;;;;;;;4983456;28;20377;-57
2022/02/28 03:50:17;;;;;;;10.67;7.60;;;;;;;;;;4989347;28;20117;-54
2022/02/28 03:52:43;;;;;;;11.43;8.37;;;;;;;;;;4985823;28;20031;-58
2022/02/28 03:55:10;;;;;;;14.17;8.67;;;;;;;;;;4991513;28;20038;-58
2022/02/28 03:57:37;;;;;;;11.67;8.17;;;;;;;;;;4977716;28;20552;-57
2022/02/28 04:00:04;;;;;;;14.70;8.57;;;;;;;;;;4972579;28;20045;-57
2022/02/28 04:02:30;;;;;;;12.90;8.50;;;;;;;;;;4983388;28;20575;-57
2022/02/28 04:04:56;;;;;;;9.97;7.90;;;;;;;;;;4985478;28;20476;-55
2022/02/28 04:07:23;;;;;;;13.17;8.47;;;;;;;;;;4992842;28;20027;-56
2022/02/28 04:09:49;;;;;;;13.17;8.30;;;;;;;;;;4979867;28;20019;-57
2022/02/28 04:12:15;;;;;;;11.87;8.23;;;;;;;;;;4992073;28;20038;-55
2022/02/28 04:14:41;;;;;;;15.73;8.17;;;;;;;;;;4991507;28;20384;-54
2022/02/28 04:17:07;;;;;;;11.93;8.60;;;;;;;;;;4978450;28;20500;-55
2022/02/28 04:19:33;;;;;;;12.87;9.10;;;;;;;;;;4973096;28;20051;-56
2022/02/28 04:22:17;;;;;;;8.37;7.03;;;;;;;;;;4982001;28;20365;-56
2022/02/28 04:24:44;;;;;;;11.73;8.07;;;;;;;;;;4992519;28;20062;-57
2022/02/28 04:27:11;;;;;;;11.27;7.63;;;;;;;;;;4985226;28;20022;-56
2022/02/28 04:29:37;;;;;;;12.17;8.80;;;;;;;;;;4983381;28;20034;-58
2022/02/28 04:32:04;;;;;;;12.80;7.83;;;;;;;;;;4979884;28;20027;-55
2022/02/28 04:34:36;;;;;;;11.73;8.20;;;;;;;;;;4972961;28;20031;-56
2022/02/28 04:37:08;;;;;;;11.33;8.10;;;;;;;;;;4977250;28;20127;-58
2022/02/28 04:39:34;;;;;;;10.80;8.50;;;;;;;;;;4978641;28;20023;-58
2022/02/28 04:42:00;;;;;;;10.87;8.30;;;;;;;;;;4987137;28;20091;-55
2022/02/28 04:44:27;;;;;;;11.77;8.63;;;;;;;;;;4974857;28;20034;-57
2022/02/28 04:46:53;;;;;;;11.10;8.50;;;;;;;;;;4981175;28;20026;-57
2022/02/28 04:49:19;;;;;;;13.27;9.27;;;;;;;;;;4992276;28;20033;-57
2022/02/28 04:51:45;;;;;;;11.10;8.50;;;;;;;;;;4980530;28;20045;-58
2022/02/28 04:54:11;;;;;;;14.33;9.97;;;;;;;;;;4974294;28;20057;-58
2022/02/28 04:56:37;;;;;;;12.10;8.87;;;;;;;;;;4987642;28;20066;-56
2022/02/28 04:59:03;;;;;;;11.17;9.37;;;;;;;;;;4991395;28;20022;-58
2022/02/28 05:01:29;;;;;;;13.30;9.23;;;;;;;;;;4989678;28;20029;-57
2022/02/28 05:03:55;;;;;;;12.50;9.03;;;;;;;;;;4976863;28;20106;-57
2022/02/28 05:06:21;;;;;;;13.83;8.60;;;;;;;;;;4974224;28;20023;-57
2022/02/28 05:08:47;;;;;;;17.33;9.83;;;;;;;;;;4983228;28;20030;-55
2022/02/28 05:11:13;;;;;;;15.87;10.33;;;;;;;;;;4990799;28;20023;-53
2022/02/28 05:13:40;;;;;;;14.00;10.60;;;;;;;;;;4981528;28;20033;-57
2022/02/28 05:16:06;;;;;;;14.63;10.03;;;;;;;;;;4981957;28;20104;-56
2022/02/28 05:18:32;;;;;;;16.50;11.27;;;;;;;;;;4989827;28;20480;-57
2022/02/28 05:20:58;;;;;;;14.97;10.27;;;;;;;;;;4989898;28;20046;-56
2022/02/28 05:23:24;;;;;;;14.83;10.57;;;;;;;;;;4981656;28;20033;-57
2022/02/28 05:25:50;;;;;;;17.77;10.83;;;;;;;;;;4990749;28;20454;-56
2022/02/28 05:28:16;;;;;;;13.20;9.63;;;;;;;;;;4989543;28;20429;-57
2022/02/28 05:30:47;;;;;;;17.40;11.63;;;;;;;;;;4989355;28;20083;-57
2022/02/28 05:33:13;;;;;;;15.37;10.23;;;;;;;;;;4984651;28;20118;-56
2022/02/28 05:35:39;;;;;;;15.23;9.60;;;;;;;;;;4981865;28;20463;-57
2022/02/28 05:38:05;;;;;;;13.17;9.43;;;;;;;;;;4977578;28;20113;-55
2022/02/28 05:40:32;;;;;;;15.33;10.07;;;;;;;;;;4976819;28;20114;-56
2022/02/28 05:42:58;;;;;;;15.77;10.90;;;;;;;;;;4990929;28;20449;-56
2022/02/28 05:45:24;;;;;;;16.57;9.87;;;;;;;;;;4991381;28;20069;-58
2022/02/28 05:47:50;;;;;;;16.33;10.27;;;;;;;;;;4990345;28;20120;-55
2022/02/28 05:50:16;;;;;;;14.73;10.37;;;;;;;;;;4991390;28;20022;-57
2022/02/28 05:52:45;;;;;;;19.93;9.13;;;;;;;;;;4990328;28;20105;-56
2022/02/28 05:55:11;;;;;;;14.70;9.77;;;;;;;;;;4991342;28;20072;-57
2022/02/28 05:57:38;;;;;;;15.37;9.03;;;;;;;;;;4983724;28;20111;-57
2022/02/28 06:00:06;;;;;;;14.13;9.77;;;;;;;;;;4990710;28;20029;-57
2022/02/28 06:02:32;;;;;;;17.40;9.77;;;;;;;;;;4978091;28;20022;-55
2022/02/28 06:04:58;;;;;;;12.77;9.40;;;;;;;;;;4986432;28;20494;-55
2022/02/28 06:07:24;;;;;;;11.20;8.60;;;;;;;;;;4972371;28;20157;-54
2022/02/28 06:09:50;;;;;;;15.27;8.83;;;;;;;;;;4971655;28;20023;-56
2022/02/28 06:12:16;;;;;;;12.23;8.00;;;;;;;;;;4971649;28;20171;-57
2022/02/28 06:14:42;;;;;;;12.23;8.57;;;;;;;;;;4971698;28;20427;-57
2022/02/28 06:17:08;;;;;;;13.63;8.43;;;;;;;;;;4981626;28;20026;-57
2022/02/28 06:19:34;;;;;;;9.73;8.27;;;;;;;;;;4989349;28;20378;-57
2022/02/28 06:22:00;;;;;;;14.10;8.67;;;;;;;;;;5010310;28;20136;-56
2022/02/28 06:24:26;;;;;;;11.43;8.37;;;;;;;;;;5055316;28;20031;-57
2022/02/28 06:26:53;;;;;;;12.40;7.83;;;;;;;;;;4991311;28;20473;-57
2022/02/28 06:29:19;;;;;;;11.33;7.83;;;;;;;;;;4983511;28;20109;-56
2022/02/28 06:31:45;;;;;;;9.90;8.10;;;;;;;;;;4987424;28;20038;-57
2022/02/28 06:34:12;;;;;;;10.00;7.03;;;;;;;;;;4988946;28;20430;-57
2022/02/28 06:36:38;;;;;;;10.13;7.33;;;;;;;;;;4975580;28;20030;-54
2022/02/28 06:39:05;;;;;;;10.97;7.53;;;;;;;;;;4974556;28;20051;-55
2022/02/28 06:41:31;;;;;;;9.83;6.47;;;;;;;;;;4987113;28;20034;-56
2022/02/28 06:43:57;;;;;;;11.47;7.77;;;;;;;;;;4974912;28;20035;-56
2022/02/28 06:46:23;;;;;;;9.83;6.53;;;;;;;;;;4973092;28;20477;-56
2022/02/28 06:48:49;;;;;;;12.00;6.67;;;;;;;;;;4975938;28;20123;-54
2022/02/28 06:51:15;;;;;;;13.37;8.20;;;;;;;;;;4977629;28;20034;-57
2022/02/28 06:53:42;;;;;;;10.60;7.43;;;;;;;;;;4975646;28;20488;-57
2022/02/28 06:56:08;;;;;;;9.67;6.80;;;;;;;;;;4980079;28;20121;-57
2022/02/28 06:58:35;;;;;;;10.67;7.40;;;;;;;;;;5015600;28;20031;-58
2022/02/28 07:01:01;;;;;;;8.90;6.97;;;;;;;;;;4997012;28;20484;-58
2022/02/28 07:03:27;;;;;;;9.37;7.13;;;;;;;;;;5021290;28;20037;-57
2022/02/28 07:05:58;;;;;;;9.43;7.47;;;;;;;;;;4982507;28;20106;-58
2022/02/28 07:08:24;;;;;;;14.60;7.37;;;;;;;;;;5000527;28;20038;-57
2022/02/28 07:10:50;;;;;;;12.67;7.70;;;;;;;;;;4988519;28;20475;-56
2022/02/28 07:13:16;;;;;;;13.93;8.57;;;;;;;;;;4981985;28;20500;-56
2022/02/28 07:15:44;;;;;;;14.33;9.00;;;;;;;;;;4993060;28;20049;-55
2022/02/28 07:18:31;;;;;;;10.47;7.90;;;;;;;;;;4977002;28;20034;-58
2022/02/28 07:20:57;;;;;;;12.93;8.60;;;;;;;;;;4974324;28;20565;-58
2022/02/28 07:23:24;;;;;;;13.23;8.67;;;;;;;;;;4994760;28;20016;-57
2022/02/28 07:25:50;;;;;;;12.57;7.77;;;;;;;;;;4992106;28;20030;-56
2022/02/28 07:28:16;;;;;;;12.53;8.17;;;;;;;;;;4988258;28;20022;-57
2022/02/28 07:30:42;;;;;;;14.87;7.57;;;;;;;;;;4989299;28;20026;-57
2022/02/28 07:33:08;;;;;;;13.17;7.90;;;;;;;;;;4977817;28;20110;-57
2022/02/28 07:35:34;;;;;;;13.93;7.90;;;;;;;;;;4993080;28;20035;-58
2022/02/28 07:38:01;;;;;;;11.43;7.77;;;;;;;;;;4990286;28;20046;-58
2022/02/28 07:40:27;;;;;;;14.33;8.23;;;;;;;;;;4983036;28;20496;-57
2022/02/28 07:42:53;;;;;;;12.30;8.77;;;;;;;;;;4985377;28;20553;-56
2022/02/28 07:45:21;;;;;;;10.93;8.33;;;;;;;;;;4986873;28;20113;-58
2022/02/28 07:47:47;;;;;;;13.60;9.17;;;;;;;;;;4989787;28;20030;-57
2022/02/28 07:50:13;;;;;;;10.47;8.60;;;;;;;;;;4972064;28;20030;-53
2022/02/28 07:52:39;;;;;;;13.90;9.17;;;;;;;;;;4973901;28;20050;-54
2022/02/28 07:55:06;;;;;;;19.87;9.30;;;;;;;;;;4979136;28;20042;-54
2022/02/28 07:57:32;;;;;;;15.23;9.77;;;;;;;;;;4973913;28;20031;-58
2022/02/28 07:59:58;;;;;;;17.67;9.20;;;;;;;;;;4973685;28;20035;-57
2022/02/28 08:02:24;;;;;;;16.17;9.97;;;;;;;;;;4973595;28;20027;-57
2022/02/28 08:04:50;;;;;;;17.43;10.43;;;;;;;;;;4973477;28;20027;-57
2022/02/28 08:07:16;;;;;;;19.53;10.60;;;;;;;;;;4992926;28;20018;-57
2022/02/28 08:09:43;;;;;;;12.63;10.27;;;;;;;;;;4993073;28;20026;-56
2022/02/28 08:12:09;;;;;;;15.77;12.13;;;;;;;;;;4973009;28;20027;-54
2022/02/28 08:14:36;;;;;;;20.17;12.63;;;;;;;;;;4975596;28;20105;-55
2022/02/28 08:17:02;;;;;;;21.60;13.63;;;;;;;;;;4987510;28;20042;-57
2022/02/28 08:19:28;;;;;;;19.93;12.80;;;;;;;;;;4990549;28;20558;-57
2022/02/28 08:21:54;;;;;;;19.63;14.37;;;;;;;;;;4977598;28;20484;-58
2022/02/28 08:24:20;;;;;;;18.23;13.07;;;;;;;;;;4972810;28;20033;-58
2022/02/28 08:26:46;;;;;;;21.43;13.10;;;;;;;;;;4988144;28;20030;-57
2022/02/28 08:29:12;;;;;;;20.53;13.40;;;;;;;;;;4992845;28;20030;-57
2022/02/28 08:31:38;;;;;;;18.70;13.07;;;;;;;;;;4977772;28;20087;-58
2022/02/28 08:34:06;;;;;;;18.97;12.83;;;;;;;;;;4973173;28;20073;-54
2022/02/28 08:36:32;;;;;;;19.93;13.03;;;;;;;;;;4985628;28;20038;-57
2022/02/28 08:38:58;;;;;;;20.97;13.83;;;;;;;;;;4992372;28;20038;-55
2022/02/28 08:41:24;;;;;;;20.90;12.73;;;;;;;;;;4980052;28;20031;-57
2022/02/28 08:43:50;;;;;;;25.13;14.00;;;;;;;;;;4972950;28;20031;-57
2022/02/28 08:46:16;;;;;;;18.63;12.97;;;;;;;;;;4979281;28;20042;-57
2022/02/28 08:48:42;;;;;;;21.03;13.73;;;;;;;;;;4971807;28;20168;-58
2022/02/28 08:51:08;;;;;;;15.60;13.70;;;;;;;;;;4980487;28;20075;-58
2022/02/28 08:53:34;;;;;;;17.27;13.13;;;;;;;;;;4992516;28;20126;-57
2022/02/28 08:56:00;;;;;;;23.13;14.50;;;;;;;;;;4983477;28;20131;-54
2022/02/28 08:58:26;;;;;;;22.73;15.20;;;;;;;;;;4972919;28;20031;-56
2022/02/28 09:00:53;;;;;;;21.03;14.07;;;;;;;;;;4971973;28;20483;-57
2022/02/28 09:03:19;;;;;;;22.73;13.97;;;;;;;;;;4972936;28;20027;-56
2022/02/28 09:05:45;;;;;;;19.63;13.63;;;;;;;;;;4977269;28;20034;-59
2022/02/28 09:08:11;;;;;;;20.27;14.23;;;;;;;;;;4991932;28;20097;-57
2022/02/28 09:10:37;;;;;;;21.97;13.63;;;;;;;;;;4987997;28;20034;-57
2022/02/28 09:13:03;;;;;;;19.83;13.53;;;;;;;;;;4987372;28;20026;-58
2022/02/28 09:15:29;;;;;;;23.47;13.87;;;;;;;;;;4984706;28;20137;-58
2022/02/28 09:17:56;;;;;;;15.67;12.37;;;;;;;;;;4972342;28;20479;-58
2022/02/28 09:20:22;;;;;;;18.67;12.73;;;;;;;;;;4970609;28;20061;-57
2022/02/28 09:22:48;;;;;;;17.73;12.47;;;;;;;;;;4971070;28;20035;-56
2022/02/28 09:25:14;;;;;;;16.30;12.07;;;;;;;;;;4975812;28;20117;-58
2022/02/28 09:27:40;;;;;;;20.30;11.97;;;;;;;;;;4981446;28;20026;-58
2022/02/28 09:30:08;;;;;;;16.63;11.83;;;;;;;;;;4978470;28;20472;-58
2022/02/28 09:32:34;;;;;;;14.83;11.00;;;;;;;;;;4987410;28;20117;-58
2022/02/28 09:35:00;;;;;;;16.27;11.53;;;;;;;;;;4978269;28;20039;-58
2022/02/28 09:37:26;;;;;;;14.97;11.53;;;;;;;;;;4978200;28;20034;-57
2022/02/28 09:39:52;;;;;;;15.50;12.03;;;;;;;;;;4972345;28;20030;-57
2022/02/28 09:42:19;;;;;;;16.50;11.73;;;;;;;;;;4988213;28;20026;-58
2022/02/28 09:44:45;;;;;;;16.33;12.40;;;;;;;;;;4980190;28;20026;-57
2022/02/28 09:47:12;;;;;;;19.37;11.83;;;;;;;;;;4989256;28;20026;-57
2022/02/28 09:49:38;;;;;;;18.43;13.03;;;;;;;;;;4991270;28;20042;-55
2022/02/28 09:52:04;;;;;;;17.93;12.53;;;;;;;;;;4976887;28;20097;-57
2022/02/28 09:54:32;;;;;;;17.00;11.97;;;;;;;;;;4971971;28;20027;-56
2022/02/28 09:56:59;;;;;;;16.53;11.00;;;;;;;;;;4983982;28;20031;-58
2022/02/28 09:59:25;;;;;;;15.23;11.00;;;;;;;;;;4971510;28;20023;-56
2022/02/28 10:01:51;;;;;;;15.10;10.60;;;;;;;;;;4982697;28;20159;-56
2022/02/28 10:04:17;;;;;;;21.20;10.20;;;;;;;;;;4986150;28;20501;-58
2022/02/28 10:12:51;;;;;;;13.70;10.13;;;;;;;;;;4979216;28;20038;-58
2022/02/28 10:15:18;;;;;;;14.03;9.13;;;;;;;;;;4971486;28;20046;-56
2022/02/28 10:17:55;;;;;;;12.17;9.77;;;;;;;;;;4976838;28;20395;-56
2022/02/28 10:20:32;;;;;;;13.40;10.77;;;;;;;;;;4978136;28;20107;-58
2022/02/28 10:23:03;;;;;;;12.57;10.73;;;;;;;;;;4971410;28;20022;-56
2022/02/28 10:25:30;;;;;;;14.73;10.13;;;;;;;;;;4971613;28;20030;-55
2022/02/28 10:28:10;;;;;;;16.90;10.53;;;;;;;;;;4979583;28;20031;-57
2022/02/28 10:30:36;;;;;;;14.40;11.30;;;;;;;;;;4991004;28;20041;-54
2022/02/28 10:33:09;;;;;;;14.43;10.47;;;;;;;;;;4980744;28;20025;-56
2022/02/28 10:38:23;;;;;;;14.40;10.60;;;;;;;;;;4971471;28;20460;-57
2022/02/28 10:40:49;;;;;;;12.13;10.17;;;;;;;;;;4971101;28;20062;-56
2022/02/28 10:43:42;;;;;;;14.60;11.20;;;;;;;;;;4978623;28;20034;-57
2022/02/28 10:46:16;;;;;;;14.63;9.97;;;;;;;;;;4988816;28;20527;-57
2022/02/28 10:48:53;;;;;;;13.63;10.77;;;;;;;;;;4980142;28;20026;-57
2022/02/28 10:51:19;;;;;;;12.77;10.03;;;;;;;;;;4990282;28;20593;-56
2022/02/28 10:53:45;;;;;;;10.67;9.17;;;;;;;;;;4989469;28;20109;-58
2022/02/28 10:56:11;;;;;;;12.83;10.43;;;;;;;;;;4989146;28;20038;-54
2022/02/28 10:58:37;;;;;;;12.70;9.13;;;;;;;;;;4980959;28;20491;-57
2022/02/28 11:01:09;;;;;;;13.33;10.37;;;;;;;;;;4978250;28;20048;-56
2022/02/28 11:03:45;;;;;;;13.70;9.83;;;;;;;;;;4971049;28;20491;-57
2022/02/28 11:06:13;;;;;;;13.03;9.53;;;;;;;;;;4970935;28;20461;-57
2022/02/28 11:08:42;;;;;;;13.53;10.03;;;;;;;;;;4970652;28;20019;-58
2022/02/28 11:11:10;;;;;;;12.30;9.43;;;;;;;;;;4970816;28;20034;-56
2022/02/28 11:13:36;;;;;;;12.03;8.57;;;;;;;;;;4976814;28;20026;-57
2022/02/28 11:16:02;;;;;;;12.70;8.93;;;;;;;;;;4987169;28;20046;-55
2022/02/28 11:18:28;;;;;;;13.83;9.87;;;;;;;;;;4983301;28;20027;-54
2022/02/28 11:20:55;;;;;;;12.43;8.50;;;;;;;;;;4970266;28;20067;-57
2022/02/28 11:23:21;;;;;;;14.60;9.23;;;;;;;;;;4983523;28;20027;-57
2022/02/28 11:25:48;;;;;;;12.57;9.03;;;;;;;;;;4972794;28;20038;-57
2022/02/28 11:28:14;;;;;;;14.77;10.10;;;;;;;;;;4979789;28;20041;-57
2022/02/28 11:30:41;;;;;;;11.47;7.87;;;;;;;;;;4993307;28;20026;-57
2022/02/28 11:33:11;;;;;;;11.40;8.03;;;;;;;;;;4990452;28;20105;-56
2022/02/28 11:35:56;;;;;;;11.10;8.93;;;;;;;;;;4993268;28;20500;-57
2022/02/28 11:38:28;;;;;;;9.25;7.72;;;;;;;;;;4992240;28;20030;-57
2022/02/28 11:41:05;;;;;;;13.67;8.27;;;;;;;;;;4993273;28;20412;-54
2022/02/28 11:43:38;;;;;;;13.03;8.40;;;;;;;;;;4979038;28;20023;-58
2022/02/28 11:46:07;;;;;;;8.63;7.53;;;;;;;;;;4973927;28;20026;-57
2022/02/28 11:48:36;;;;;;;8.73;7.10;;;;;;;;;;4987194;28;20058;-55
2022/02/28 11:51:04;;;;;;;9.23;7.10;;;;;;;;;;4993343;28;20132;-58
2022/02/28 11:53:42;;;;;;;10.33;7.40;;;;;;;;;;4992336;28;20469;-57
2022/02/28 11:56:17;;;;;;;11.90;7.30;;;;;;;;;;4990835;28;20050;-57
2022/02/28 11:58:51;;;;;;;10.97;8.20;;;;;;;;;;4977846;28;20026;-58
2022/02/28 12:01:19;;;;;;;9.40;7.40;;;;;;;;;;4973595;28;20030;-58
2022/02/28 12:03:49;;;;;;;10.53;7.27;;;;;;;;;;4973313;28;20301;-58
2022/02/28 12:06:34;;;;;;;9.03;7.03;;;;;;;;;;4973451;28;20054;-57
2022/02/28 12:09:02;;;;;;;13.57;7.00;;;;;;;;;;4989728;28;20050;-56
2022/02/28 12:11:30;;;;;;;10.63;6.57;;;;;;;;;;4992710;28;20087;-58
2022/02/28 12:13:59;;;;;;;10.27;6.53;;;;;;;;;;4976228;28;20027;-54
2022/02/28 12:19:30;;;;;;;8.87;6.70;;;;;;;;;;4973048;28;20432;-57
2022/02/28 12:22:04;;;;;;;10.63;6.75;;;;;;;;;;4975814;28;20026;-57
2022/02/28 12:24:49;;;;;;;9.18;6.78;;;;;;;;;;4973190;28;20038;-56
2022/02/28 12:27:15;;;;;;;9.23;6.30;;;;;;;;;;4983153;28;20019;-57
2022/02/28 12:29:41;;;;;;;9.00;5.97;;;;;;;;;;4991201;28;20042;-56
2022/02/28 12:32:08;;;;;;;9.43;6.83;;;;;;;;;;4990528;28;20030;-56
2022/02/28 12:34:34;;;;;;;7.90;6.40;;;;;;;;;;4990551;28;20042;-56
2022/02/28 12:37:01;;;;;;;10.43;6.68;;;;;;;;;;4991438;28;20095;-58
2022/02/28 12:39:27;;;;;;;10.20;7.03;;;;;;;;;;4992208;28;20473;-58
2022/02/28 12:41:56;;;;;;;10.75;6.63;;;;;;;;;;4984725;28;20022;-57
2022/02/28 12:44:22;;;;;;;8.63;6.90;;;;;;;;;;4975675;28;20037;-55
2022/02/28 12:46:54;;;;;;;9.17;6.80;;;;;;;;;;4991332;28;20508;-55
2022/02/28 12:49:22;;;;;;;8.77;6.10;;;;;;;;;;4990017;28;20340;-55
2022/02/28 12:51:49;;;;;;;9.77;6.45;;;;;;;;;;4985221;28;20023;-57
2022/02/28 12:54:18;;;;;;;9.65;7.15;;;;;;;;;;4991965;28;20035;-57
2022/02/28 12:56:48;;;;;;;9.37;6.70;;;;;;;;;;4985408;28;20031;-58
2022/02/28 12:59:15;;;;;;;10.20;7.07;;;;;;;;;;4972671;28;20030;-57
2022/02/28 13:01:43;;;;;;;8.48;6.60;;;;;;;;;;4972774;28;20027;-54
2022/02/28 13:04:10;;;;;;;10.15;6.35;;;;;;;;;;4972846;28;20110;-56
2022/02/28 13:06:37;;;;;;;10.93;7.28;;;;;;;;;;4975828;28;20022;-59
2022/02/28 13:09:12;;;;;;;12.60;7.55;;;;;;;;;;4972450;28;20034;-58
2022/02/28 13:11:49;;;;;;;10.00;7.22;;;;;;;;;;4974734;28;20073;-57
2022/02/28 13:14:19;;;;;;;8.70;6.63;;;;;;;;;;4991708;28;20054;-57
2022/02/28 13:16:47;;;;;;;10.38;7.35;;;;;;;;;;4988973;28;20488;-58
2022/02/28 13:19:15;;;;;;;10.73;6.70;;;;;;;;;;4991668;28;20037;-57
2022/02/28 13:22:07;;;;;;;11.02;7.03;;;;;;;;;;4987562;28;20027;-56
2022/02/28 13:24:34;;;;;;;8.20;6.80;;;;;;;;;;4972454;28;20035;-57
2022/02/28 13:27:01;;;;;;;9.85;6.63;;;;;;;;;;4976656;28;20550;-54
2022/02/28 13:29:28;;;;;;;10.82;6.57;;;;;;;;;;4989485;28;20030;-56
2022/02/28 13:31:55;;;;;;;10.73;7.18;;;;;;;;;;4977479;28;20022;-57
2022/02/28 13:34:21;;;;;;;8.95;6.75;;;;;;;;;;4991481;28;20495;-58
2022/02/28 13:36:49;;;;;;;11.00;6.85;;;;;;;;;;4986936;28;20133;-57
2022/02/28 13:39:21;;;;;;;11.25;6.85;;;;;;;;;;4971831;28;20031;-55
2022/02/28 13:41:47;;;;;;;11.38;6.78;;;;;;;;;;4975258;28;20023;-56
2022/02/28 13:44:15;;;;;;;10.50;7.60;;;;;;;;;;4989768;28;20392;-53
2022/02/28 13:46:57;;;;;;;7.70;6.90;;;;;;;;;;4988202;28;20038;-57
2022/02/28 13:49:24;;;;;;;8.82;6.47;;;;;;;;;;4971767;28;20493;-57
2022/02/28 13:51:50;;;;;;;12.02;8.25;;;;;;;;;;4971544;28;20128;-52
2022/02/28 13:54:16;;;;;;;11.15;7.20;;;;;;;;;;4989169;28;20510;-56
2022/02/28 13:56:42;;;;;;;9.00;7.15;;;;;;;;;;5005408;28;20045;-57
2022/02/28 13:59:16;;;;;;;8.27;6.78;;;;;;;;;;4970334;28;20023;-56
2022/02/28 14:01:53;;;;;;;11.63;7.43;;;;;;;;;;4970384;28;20062;-58
2022/02/28 14:04:21;;;;;;;7.45;6.45;;;;;;;;;;4972079;28;20027;-55
2022/02/28 14:07:00;;;;;;;8.82;5.95;;;;;;;;;;4971523;28;20037;-55
2022/02/28 14:09:27;;;;;;;13.18;6.90;;;;;;;;;;4971371;28;20101;-56
2022/02/28 14:11:53;;;;;;;7.10;6.25;;;;;;;;;;4980841;28;20058;-57
2022/02/28 14:14:20;;;;;;;7.25;5.60;;;;;;;;;;4989404;28;20084;-56
2022/02/28 14:16:55;;;;;;;8.55;6.90;;;;;;;;;;4989837;28;20104;-57
2022/02/28 14:19:21;;;;;;;10.43;6.82;;;;;;;;;;4990760;28;20056;-57
2022/02/28 14:21:48;;;;;;;8.55;7.00;;;;;;;;;;4988794;28;20027;-57
2022/02/28 14:24:19;;;;;;;9.15;6.20;;;;;;;;;;4973216;28;20109;-57
2022/02/28 14:26:46;;;;;;;9.45;7.13;;;;;;;;;;4990056;28;20031;-58
2022/02/28 14:29:13;;;;;;;10.88;6.50;;;;;;;;;;4990985;28;20430;-58
2022/02/28 14:31:46;;;;;;;9.65;6.70;;;;;;;;;;4989648;28;20514;-57
2022/02/28 14:34:14;;;;;;;9.90;6.70;;;;;;;;;;4971309;28;20035;-56
2022/02/28 14:36:40;;;;;;;6.10;5.53;;;;;;;;;;4973504;28;20034;-61
2022/02/28 14:39:07;;;;;;;9.35;6.60;;;;;;;;;;4971220;28;20472;-58
2022/02/28 14:41:46;;;;;;;8.43;6.93;;;;;;;;;;4971268;28;20019;-58